sensor_id;sensor_type;location;lat;lon;timestamp;P1;durP1;ratioP1;P2;durP2;ratioP2
72439;SDS011;60446;50.752;4.352;2023-09-18T00:00:45;10.88;;;4.30;;
72439;SDS011;60446;50.752;4.352;2023-09-18T00:03:17;8.90;;;4.60;;
72439;SDS011;60446;50.752;4.352;2023-09-18T00:05:47;8.75;;;4.53;;
72439;SDS011;60446;50.752;4.352;2023-09-18T00:08:15;9.77;;;3.97;;
72439;SDS011;60446;50.752;4.352;2023-09-18T00:10:50;9.32;;;4.20;;
72439;SDS011;60446;50.752;4.352;2023-09-18T00:13:21;10.00;;;4.60;;
72439;SDS011;60446;50.752;4.352;2023-09-18T00:15:49;10.90;;;4.27;;
72439;SDS011;60446;50.752;4.352;2023-09-18T00:18:21;10.88;;;4.40;;
72439;SDS011;60446;50.752;4.352;2023-09-18T00:20:49;9.90;;;4.72;;
72439;SDS011;60446;50.752;4.352;2023-09-18T00:23:18;10.20;;;4.50;;
72439;SDS011;60446;50.752;4.352;2023-09-18T00:25:46;10.40;;;4.32;;
72439;SDS011;60446;50.752;4.352;2023-09-18T00:28:13;9.80;;;4.97;;
72439;SDS011;60446;50.752;4.352;2023-09-18T00:30:47;11.98;;;5.25;;
72439;SDS011;60446;50.752;4.352;2023-09-18T00:33:17;9.00;;;4.28;;
72439;SDS011;60446;50.752;4.352;2023-09-18T00:35:49;11.50;;;4.60;;
72439;SDS011;60446;50.752;4.352;2023-09-18T00:38:18;11.80;;;5.03;;
72439;SDS011;60446;50.752;4.352;2023-09-18T00:40:47;13.17;;;4.40;;
72439;SDS011;60446;50.752;4.352;2023-09-18T00:43:14;11.45;;;5.15;;
72439;SDS011;60446;50.752;4.352;2023-09-18T00:45:42;11.70;;;4.80;;
72439;SDS011;60446;50.752;4.352;2023-09-18T00:48:12;10.98;;;5.07;;
72439;SDS011;60446;50.752;4.352;2023-09-18T00:50:46;11.43;;;4.53;;
72439;SDS011;60446;50.752;4.352;2023-09-18T00:53:19;11.47;;;4.63;;
72439;SDS011;60446;50.752;4.352;2023-09-18T00:55:50;12.13;;;4.07;;
72439;SDS011;60446;50.752;4.352;2023-09-18T00:58:20;10.98;;;4.07;;
72439;SDS011;60446;50.752;4.352;2023-09-18T01:00:48;9.32;;;4.25;;
72439;SDS011;60446;50.752;4.352;2023-09-18T01:03:21;10.65;;;4.18;;
72439;SDS011;60446;50.752;4.352;2023-09-18T01:05:51;10.60;;;4.20;;
72439;SDS011;60446;50.752;4.352;2023-09-18T01:08:20;12.07;;;4.10;;
72439;SDS011;60446;50.752;4.352;2023-09-18T01:13:42;9.50;;;3.33;;
72439;SDS011;60446;50.752;4.352;2023-09-18T01:16:25;9.43;;;3.80;;
72439;SDS011;60446;50.752;4.352;2023-09-18T01:19:01;11.53;;;3.83;;
72439;SDS011;60446;50.752;4.352;2023-09-18T01:21:29;11.38;;;4.10;;
72439;SDS011;60446;50.752;4.352;2023-09-18T01:23:57;12.63;;;4.22;;
72439;SDS011;60446;50.752;4.352;2023-09-18T01:26:24;12.40;;;4.15;;
72439;SDS011;60446;50.752;4.352;2023-09-18T01:28:51;11.07;;;4.07;;
72439;SDS011;60446;50.752;4.352;2023-09-18T01:31:19;9.93;;;4.60;;
72439;SDS011;60446;50.752;4.352;2023-09-18T01:33:47;9.68;;;4.15;;
72439;SDS011;60446;50.752;4.352;2023-09-18T01:36:15;10.68;;;4.53;;
72439;SDS011;60446;50.752;4.352;2023-09-18T01:38:44;12.25;;;4.47;;
72439;SDS011;60446;50.752;4.352;2023-09-18T01:41:13;10.32;;;4.13;;
72439;SDS011;60446;50.752;4.352;2023-09-18T01:43:40;11.27;;;3.70;;
72439;SDS011;60446;50.752;4.352;2023-09-18T01:46:08;9.55;;;4.07;;
72439;SDS011;60446;50.752;4.352;2023-09-18T01:48:35;9.38;;;3.75;;
72439;SDS011;60446;50.752;4.352;2023-09-18T01:51:04;10.88;;;4.32;;
72439;SDS011;60446;50.752;4.352;2023-09-18T01:53:31;11.85;;;4.28;;
72439;SDS011;60446;50.752;4.352;2023-09-18T01:55:58;11.27;;;4.20;;
72439;SDS011;60446;50.752;4.352;2023-09-18T01:58:26;10.68;;;4.47;;
72439;SDS011;60446;50.752;4.352;2023-09-18T02:00:53;9.95;;;4.65;;
72439;SDS011;60446;50.752;4.352;2023-09-18T02:03:21;12.02;;;4.72;;
72439;SDS011;60446;50.752;4.352;2023-09-18T02:06:08;10.88;;;4.70;;
72439;SDS011;60446;50.752;4.352;2023-09-18T02:08:36;11.50;;;4.33;;
72439;SDS011;60446;50.752;4.352;2023-09-18T02:11:03;12.02;;;4.65;;
72439;SDS011;60446;50.752;4.352;2023-09-18T02:13:31;10.60;;;4.40;;
72439;SDS011;60446;50.752;4.352;2023-09-18T02:15:58;11.85;;;4.70;;
72439;SDS011;60446;50.752;4.352;2023-09-18T02:18:26;11.02;;;4.88;;
72439;SDS011;60446;50.752;4.352;2023-09-18T02:20:53;14.50;;;4.23;;
72439;SDS011;60446;50.752;4.352;2023-09-18T02:23:21;11.60;;;3.92;;
72439;SDS011;60446;50.752;4.352;2023-09-18T02:25:55;10.98;;;4.10;;
72439;SDS011;60446;50.752;4.352;2023-09-18T02:28:24;9.82;;;3.63;;
72439;SDS011;60446;50.752;4.352;2023-09-18T02:30:52;10.57;;;3.97;;
72439;SDS011;60446;50.752;4.352;2023-09-18T02:33:19;10.87;;;3.60;;
72439;SDS011;60446;50.752;4.352;2023-09-18T02:35:46;8.70;;;3.33;;
72439;SDS011;60446;50.752;4.352;2023-09-18T02:38:14;9.43;;;3.40;;
72439;SDS011;60446;50.752;4.352;2023-09-18T02:40:41;10.27;;;3.67;;
72439;SDS011;60446;50.752;4.352;2023-09-18T02:43:08;8.40;;;3.08;;
72439;SDS011;60446;50.752;4.352;2023-09-18T02:45:36;7.60;;;3.33;;
72439;SDS011;60446;50.752;4.352;2023-09-18T02:48:03;9.95;;;3.67;;
72439;SDS011;60446;50.752;4.352;2023-09-18T02:50:30;10.88;;;3.55;;
72439;SDS011;60446;50.752;4.352;2023-09-18T02:52:58;8.88;;;3.03;;
72439;SDS011;60446;50.752;4.352;2023-09-18T02:55:26;8.30;;;3.28;;
72439;SDS011;60446;50.752;4.352;2023-09-18T02:57:53;8.30;;;3.00;;
72439;SDS011;60446;50.752;4.352;2023-09-18T03:00:20;9.50;;;2.88;;
72439;SDS011;60446;50.752;4.352;2023-09-18T03:03:08;8.85;;;2.90;;
72439;SDS011;60446;50.752;4.352;2023-09-18T03:05:37;8.95;;;2.60;;
72439;SDS011;60446;50.752;4.352;2023-09-18T03:08:06;7.55;;;2.97;;
72439;SDS011;60446;50.752;4.352;2023-09-18T03:10:35;7.70;;;3.00;;
72439;SDS011;60446;50.752;4.352;2023-09-18T03:13:07;7.63;;;2.78;;
72439;SDS011;60446;50.752;4.352;2023-09-18T03:15:37;7.75;;;2.40;;
72439;SDS011;60446;50.752;4.352;2023-09-18T03:18:05;7.72;;;2.58;;
72439;SDS011;60446;50.752;4.352;2023-09-18T03:20:34;7.00;;;2.30;;
72439;SDS011;60446;50.752;4.352;2023-09-18T03:23:02;6.87;;;2.00;;
72439;SDS011;60446;50.752;4.352;2023-09-18T03:25:29;6.72;;;2.47;;
72439;SDS011;60446;50.752;4.352;2023-09-18T03:28:18;8.85;;;2.55;;
72439;SDS011;60446;50.752;4.352;2023-09-18T03:30:47;8.73;;;2.88;;
72439;SDS011;60446;50.752;4.352;2023-09-18T03:33:16;8.77;;;2.72;;
72439;SDS011;60446;50.752;4.352;2023-09-18T03:35:47;9.83;;;2.80;;
72439;SDS011;60446;50.752;4.352;2023-09-18T03:38:21;11.00;;;3.47;;
72439;SDS011;60446;50.752;4.352;2023-09-18T03:40:49;8.80;;;2.88;;
72439;SDS011;60446;50.752;4.352;2023-09-18T03:43:16;11.07;;;3.35;;
72439;SDS011;60446;50.752;4.352;2023-09-18T03:45:44;9.10;;;3.15;;
72439;SDS011;60446;50.752;4.352;2023-09-18T03:48:11;11.93;;;3.13;;
72439;SDS011;60446;50.752;4.352;2023-09-18T03:50:40;8.75;;;2.88;;
72439;SDS011;60446;50.752;4.352;2023-09-18T03:53:09;9.93;;;2.85;;
72439;SDS011;60446;50.752;4.352;2023-09-18T03:55:37;8.13;;;2.67;;
72439;SDS011;60446;50.752;4.352;2023-09-18T03:58:05;8.25;;;2.53;;
72439;SDS011;60446;50.752;4.352;2023-09-18T04:00:33;10.47;;;2.30;;
72439;SDS011;60446;50.752;4.352;2023-09-18T04:03:00;8.40;;;2.65;;
72439;SDS011;60446;50.752;4.352;2023-09-18T04:05:27;7.15;;;2.10;;
72439;SDS011;60446;50.752;4.352;2023-09-18T04:07:56;7.47;;;2.35;;
72439;SDS011;60446;50.752;4.352;2023-09-18T04:10:24;6.90;;;2.28;;
72439;SDS011;60446;50.752;4.352;2023-09-18T04:12:52;7.47;;;1.63;;
72439;SDS011;60446;50.752;4.352;2023-09-18T04:15:20;7.10;;;1.73;;
72439;SDS011;60446;50.752;4.352;2023-09-18T04:17:49;8.27;;;2.22;;
72439;SDS011;60446;50.752;4.352;2023-09-18T04:20:16;6.50;;;1.48;;
72439;SDS011;60446;50.752;4.352;2023-09-18T04:22:46;3.88;;;1.10;;
72439;SDS011;60446;50.752;4.352;2023-09-18T04:25:19;5.43;;;1.33;;
72439;SDS011;60446;50.752;4.352;2023-09-18T04:27:48;4.20;;;1.35;;
72439;SDS011;60446;50.752;4.352;2023-09-18T04:30:19;5.47;;;1.50;;
72439;SDS011;60446;50.752;4.352;2023-09-18T04:32:47;3.65;;;0.90;;
72439;SDS011;60446;50.752;4.352;2023-09-18T04:35:15;4.15;;;1.35;;
72439;SDS011;60446;50.752;4.352;2023-09-18T04:37:43;6.30;;;0.90;;
72439;SDS011;60446;50.752;4.352;2023-09-18T04:40:10;4.28;;;1.10;;
72439;SDS011;60446;50.752;4.352;2023-09-18T04:42:39;5.20;;;1.05;;
72439;SDS011;60446;50.752;4.352;2023-09-18T04:45:07;4.25;;;1.02;;
72439;SDS011;60446;50.752;4.352;2023-09-18T04:47:38;4.47;;;1.30;;
72439;SDS011;60446;50.752;4.352;2023-09-18T04:50:06;4.43;;;1.43;;
72439;SDS011;60446;50.752;4.352;2023-09-18T04:52:40;4.95;;;1.20;;
72439;SDS011;60446;50.752;4.352;2023-09-18T04:55:10;5.35;;;1.50;;
72439;SDS011;60446;50.752;4.352;2023-09-18T04:57:37;5.50;;;1.52;;
72439;SDS011;60446;50.752;4.352;2023-09-18T05:00:05;4.65;;;1.48;;
72439;SDS011;60446;50.752;4.352;2023-09-18T05:02:43;4.07;;;1.13;;
72439;SDS011;60446;50.752;4.352;2023-09-18T05:05:13;4.05;;;1.30;;
72439;SDS011;60446;50.752;4.352;2023-09-18T05:07:41;4.57;;;0.95;;
72439;SDS011;60446;50.752;4.352;2023-09-18T05:10:09;4.65;;;1.48;;
72439;SDS011;60446;50.752;4.352;2023-09-18T05:12:40;4.68;;;1.10;;
72439;SDS011;60446;50.752;4.352;2023-09-18T05:15:08;3.43;;;1.30;;
72439;SDS011;60446;50.752;4.352;2023-09-18T05:17:43;5.90;;;1.52;;
72439;SDS011;60446;50.752;4.352;2023-09-18T05:20:16;5.28;;;1.40;;
72439;SDS011;60446;50.752;4.352;2023-09-18T05:22:44;4.68;;;1.27;;
72439;SDS011;60446;50.752;4.352;2023-09-18T05:25:12;5.57;;;1.60;;
72439;SDS011;60446;50.752;4.352;2023-09-18T05:27:42;4.40;;;1.10;;
72439;SDS011;60446;50.752;4.352;2023-09-18T05:30:15;5.40;;;1.33;;
72439;SDS011;60446;50.752;4.352;2023-09-18T05:32:49;4.85;;;1.38;;
72439;SDS011;60446;50.752;4.352;2023-09-18T05:35:17;5.22;;;1.33;;
72439;SDS011;60446;50.752;4.352;2023-09-18T05:37:44;5.13;;;1.15;;
72439;SDS011;60446;50.752;4.352;2023-09-18T05:40:12;4.77;;;1.60;;
72439;SDS011;60446;50.752;4.352;2023-09-18T05:42:41;4.85;;;1.52;;
72439;SDS011;60446;50.752;4.352;2023-09-18T05:45:12;4.78;;;1.40;;
72439;SDS011;60446;50.752;4.352;2023-09-18T05:47:41;5.95;;;1.50;;
72439;SDS011;60446;50.752;4.352;2023-09-18T05:50:10;6.30;;;1.48;;
72439;SDS011;60446;50.752;4.352;2023-09-18T05:52:43;5.23;;;1.60;;
72439;SDS011;60446;50.752;4.352;2023-09-18T05:55:12;6.47;;;1.60;;
72439;SDS011;60446;50.752;4.352;2023-09-18T05:57:41;5.63;;;1.33;;
72439;SDS011;60446;50.752;4.352;2023-09-18T06:00:09;6.65;;;1.60;;
72439;SDS011;60446;50.752;4.352;2023-09-18T06:02:40;6.63;;;1.63;;
72439;SDS011;60446;50.752;4.352;2023-09-18T06:05:08;4.57;;;1.50;;
72439;SDS011;60446;50.752;4.352;2023-09-18T06:07:38;4.93;;;1.73;;
72439;SDS011;60446;50.752;4.352;2023-09-18T06:10:06;5.30;;;1.83;;
72439;SDS011;60446;50.752;4.352;2023-09-18T06:12:34;5.10;;;1.65;;
72439;SDS011;60446;50.752;4.352;2023-09-18T06:15:01;7.85;;;1.60;;
72439;SDS011;60446;50.752;4.352;2023-09-18T06:17:30;7.50;;;1.50;;
72439;SDS011;60446;50.752;4.352;2023-09-18T06:19:58;6.82;;;2.30;;
72439;SDS011;60446;50.752;4.352;2023-09-18T06:22:25;8.05;;;1.65;;
72439;SDS011;60446;50.752;4.352;2023-09-18T06:24:52;5.68;;;1.30;;
72439;SDS011;60446;50.752;4.352;2023-09-18T06:27:19;8.23;;;1.90;;
72439;SDS011;60446;50.752;4.352;2023-09-18T06:29:47;5.00;;;1.57;;
72439;SDS011;60446;50.752;4.352;2023-09-18T06:32:14;5.00;;;1.70;;
72439;SDS011;60446;50.752;4.352;2023-09-18T06:34:42;4.72;;;1.20;;
72439;SDS011;60446;50.752;4.352;2023-09-18T06:37:10;7.88;;;2.55;;
72439;SDS011;60446;50.752;4.352;2023-09-18T06:39:40;8.32;;;2.10;;
72439;SDS011;60446;50.752;4.352;2023-09-18T06:42:07;5.90;;;2.10;;
72439;SDS011;60446;50.752;4.352;2023-09-18T06:44:36;5.45;;;1.70;;
72439;SDS011;60446;50.752;4.352;2023-09-18T06:47:04;6.68;;;1.90;;
72439;SDS011;60446;50.752;4.352;2023-09-18T06:49:32;6.43;;;1.77;;
72439;SDS011;60446;50.752;4.352;2023-09-18T06:52:00;5.90;;;2.10;;
72439;SDS011;60446;50.752;4.352;2023-09-18T06:54:29;9.17;;;2.60;;
72439;SDS011;60446;50.752;4.352;2023-09-18T06:57:04;5.30;;;2.17;;
72439;SDS011;60446;50.752;4.352;2023-09-18T06:59:32;10.98;;;2.22;;
72439;SDS011;60446;50.752;4.352;2023-09-18T07:02:03;8.20;;;2.28;;
72439;SDS011;60446;50.752;4.352;2023-09-18T07:04:40;6.88;;;2.42;;
72439;SDS011;60446;50.752;4.352;2023-09-18T07:07:12;7.97;;;2.20;;
72439;SDS011;60446;50.752;4.352;2023-09-18T07:09:41;7.13;;;2.50;;
72439;SDS011;60446;50.752;4.352;2023-09-18T07:12:28;7.45;;;2.22;;
72439;SDS011;60446;50.752;4.352;2023-09-18T07:14:55;6.05;;;1.92;;
72439;SDS011;60446;50.752;4.352;2023-09-18T07:17:23;5.63;;;2.00;;
72439;SDS011;60446;50.752;4.352;2023-09-18T07:19:50;7.53;;;2.70;;
72439;SDS011;60446;50.752;4.352;2023-09-18T07:22:17;6.88;;;2.08;;
72439;SDS011;60446;50.752;4.352;2023-09-18T07:24:45;6.70;;;1.85;;
72439;SDS011;60446;50.752;4.352;2023-09-18T07:27:12;6.43;;;2.05;;
72439;SDS011;60446;50.752;4.352;2023-09-18T07:29:40;6.78;;;2.00;;
72439;SDS011;60446;50.752;4.352;2023-09-18T07:32:10;6.83;;;2.30;;
72439;SDS011;60446;50.752;4.352;2023-09-18T07:34:43;5.80;;;1.83;;
72439;SDS011;60446;50.752;4.352;2023-09-18T07:37:14;6.13;;;1.80;;
72439;SDS011;60446;50.752;4.352;2023-09-18T07:39:47;6.25;;;2.28;;
72439;SDS011;60446;50.752;4.352;2023-09-18T07:42:15;7.32;;;2.15;;
72439;SDS011;60446;50.752;4.352;2023-09-18T07:44:42;6.47;;;2.10;;
72439;SDS011;60446;50.752;4.352;2023-09-18T07:47:10;7.63;;;2.15;;
72439;SDS011;60446;50.752;4.352;2023-09-18T07:49:37;5.85;;;1.70;;
72439;SDS011;60446;50.752;4.352;2023-09-18T07:52:04;5.45;;;1.80;;
72439;SDS011;60446;50.752;4.352;2023-09-18T07:54:32;6.43;;;2.00;;
72439;SDS011;60446;50.752;4.352;2023-09-18T07:56:59;8.27;;;1.97;;
72439;SDS011;60446;50.752;4.352;2023-09-18T07:59:29;9.25;;;2.05;;
72439;SDS011;60446;50.752;4.352;2023-09-18T08:01:57;7.60;;;2.47;;
72439;SDS011;60446;50.752;4.352;2023-09-18T08:04:31;5.90;;;2.03;;
72439;SDS011;60446;50.752;4.352;2023-09-18T08:07:04;7.43;;;1.92;;
72439;SDS011;60446;50.752;4.352;2023-09-18T08:09:34;7.70;;;1.97;;
72439;SDS011;60446;50.752;4.352;2023-09-18T08:12:07;5.10;;;2.13;;
72439;SDS011;60446;50.752;4.352;2023-09-18T08:14:42;6.57;;;2.30;;
72439;SDS011;60446;50.752;4.352;2023-09-18T08:17:22;5.65;;;2.25;;
72439;SDS011;60446;50.752;4.352;2023-09-18T08:19:51;7.85;;;2.38;;
72439;SDS011;60446;50.752;4.352;2023-09-18T08:22:25;6.30;;;2.50;;
72439;SDS011;60446;50.752;4.352;2023-09-18T08:24:57;5.82;;;2.60;;
72439;SDS011;60446;50.752;4.352;2023-09-18T08:27:27;7.20;;;2.45;;
72439;SDS011;60446;50.752;4.352;2023-09-18T08:30:04;9.55;;;2.30;;
72439;SDS011;60446;50.752;4.352;2023-09-18T08:32:40;6.78;;;2.13;;
72439;SDS011;60446;50.752;4.352;2023-09-18T08:35:14;7.10;;;2.07;;
72439;SDS011;60446;50.752;4.352;2023-09-18T08:37:58;7.20;;;2.55;;
72439;SDS011;60446;50.752;4.352;2023-09-18T08:40:32;6.15;;;1.95;;
72439;SDS011;60446;50.752;4.352;2023-09-18T08:43:04;6.65;;;2.08;;
72439;SDS011;60446;50.752;4.352;2023-09-18T08:45:37;6.95;;;2.13;;
72439;SDS011;60446;50.752;4.352;2023-09-18T08:48:34;9.10;;;2.37;;
72439;SDS011;60446;50.752;4.352;2023-09-18T08:51:03;5.82;;;2.78;;
72439;SDS011;60446;50.752;4.352;2023-09-18T08:53:33;10.43;;;3.10;;
72439;SDS011;60446;50.752;4.352;2023-09-18T08:56:04;8.88;;;2.67;;
72439;SDS011;60446;50.752;4.352;2023-09-18T08:58:32;9.77;;;2.80;;
72439;SDS011;60446;50.752;4.352;2023-09-18T09:01:04;8.20;;;3.20;;
72439;SDS011;60446;50.752;4.352;2023-09-18T09:03:32;6.57;;;2.67;;
72439;SDS011;60446;50.752;4.352;2023-09-18T09:06:01;8.57;;;3.00;;
72439;SDS011;60446;50.752;4.352;2023-09-18T09:08:28;7.50;;;2.60;;
72439;SDS011;60446;50.752;4.352;2023-09-18T09:10:56;9.57;;;3.03;;
72439;SDS011;60446;50.752;4.352;2023-09-18T09:13:24;7.30;;;3.10;;
72439;SDS011;60446;50.752;4.352;2023-09-18T09:16:11;6.65;;;2.80;;
72439;SDS011;60446;50.752;4.352;2023-09-18T09:18:49;7.90;;;3.30;;
72439;SDS011;60446;50.752;4.352;2023-09-18T09:21:18;7.00;;;3.10;;
72439;SDS011;60446;50.752;4.352;2023-09-18T09:26:19;7.47;;;2.97;;
72439;SDS011;60446;50.752;4.352;2023-09-18T09:28:49;9.25;;;4.05;;
72439;SDS011;60446;50.752;4.352;2023-09-18T09:31:24;10.07;;;3.50;;
72439;SDS011;60446;50.752;4.352;2023-09-18T09:33:54;8.82;;;3.72;;
72439;SDS011;60446;50.752;4.352;2023-09-18T09:36:26;7.80;;;3.00;;
72439;SDS011;60446;50.752;4.352;2023-09-18T09:38:56;7.03;;;2.80;;
72439;SDS011;60446;50.752;4.352;2023-09-18T09:41:26;8.65;;;3.33;;
72439;SDS011;60446;50.752;4.352;2023-09-18T09:43:54;6.97;;;2.63;;
72439;SDS011;60446;50.752;4.352;2023-09-18T09:46:23;6.90;;;2.65;;
72439;SDS011;60446;50.752;4.352;2023-09-18T09:49:05;8.63;;;2.90;;
72439;SDS011;60446;50.752;4.352;2023-09-18T09:51:33;7.57;;;3.07;;
72439;SDS011;60446;50.752;4.352;2023-09-18T09:54:01;6.70;;;2.80;;
72439;SDS011;60446;50.752;4.352;2023-09-18T09:56:47;7.82;;;2.92;;
72439;SDS011;60446;50.752;4.352;2023-09-18T09:59:18;8.60;;;2.88;;
72439;SDS011;60446;50.752;4.352;2023-09-18T10:01:46;8.27;;;2.78;;
72439;SDS011;60446;50.752;4.352;2023-09-18T10:04:18;9.07;;;3.13;;
72439;SDS011;60446;50.752;4.352;2023-09-18T10:06:56;6.05;;;2.60;;
72439;SDS011;60446;50.752;4.352;2023-09-18T10:09:39;7.50;;;2.95;;
72439;SDS011;60446;50.752;4.352;2023-09-18T10:12:15;7.22;;;3.05;;
72439;SDS011;60446;50.752;4.352;2023-09-18T10:14:52;9.63;;;3.08;;
72439;SDS011;60446;50.752;4.352;2023-09-18T10:17:41;6.80;;;3.30;;
72439;SDS011;60446;50.752;4.352;2023-09-18T10:20:15;8.10;;;3.20;;
72439;SDS011;60446;50.752;4.352;2023-09-18T10:22:52;9.30;;;3.05;;
72439;SDS011;60446;50.752;4.352;2023-09-18T10:25:32;7.05;;;2.55;;
72439;SDS011;60446;50.752;4.352;2023-09-18T10:28:04;6.45;;;2.53;;
72439;SDS011;60446;50.752;4.352;2023-09-18T10:30:49;8.47;;;3.10;;
72439;SDS011;60446;50.752;4.352;2023-09-18T10:33:20;8.02;;;2.60;;
72439;SDS011;60446;50.752;4.352;2023-09-18T10:35:50;7.22;;;2.78;;
72439;SDS011;60446;50.752;4.352;2023-09-18T10:38:24;7.53;;;2.63;;
72439;SDS011;60446;50.752;4.352;2023-09-18T10:40:57;6.90;;;2.95;;
72439;SDS011;60446;50.752;4.352;2023-09-18T10:43:36;7.23;;;3.07;;
72439;SDS011;60446;50.752;4.352;2023-09-18T10:46:08;6.75;;;2.88;;
72439;SDS011;60446;50.752;4.352;2023-09-18T10:48:42;7.80;;;3.10;;
72439;SDS011;60446;50.752;4.352;2023-09-18T10:51:14;9.75;;;3.38;;
72439;SDS011;60446;50.752;4.352;2023-09-18T10:53:59;8.95;;;2.63;;
72439;SDS011;60446;50.752;4.352;2023-09-18T10:56:30;5.93;;;2.50;;
72439;SDS011;60446;50.752;4.352;2023-09-18T10:59:01;5.90;;;2.28;;
72439;SDS011;60446;50.752;4.352;2023-09-18T11:01:34;7.70;;;2.75;;
72439;SDS011;60446;50.752;4.352;2023-09-18T11:04:04;7.60;;;2.70;;
72439;SDS011;60446;50.752;4.352;2023-09-18T11:09:27;5.70;;;2.33;;
72439;SDS011;60446;50.752;4.352;2023-09-18T11:17:31;12.73;;;2.20;;
72439;SDS011;60446;50.752;4.352;2023-09-18T11:20:15;6.25;;;2.38;;
72439;SDS011;60446;50.752;4.352;2023-09-18T11:22:59;6.37;;;2.40;;
72439;SDS011;60446;50.752;4.352;2023-09-18T11:25:43;6.72;;;2.40;;
72439;SDS011;60446;50.752;4.352;2023-09-18T11:28:24;6.93;;;2.58;;
72439;SDS011;60446;50.752;4.352;2023-09-18T11:30:53;5.78;;;1.90;;
72439;SDS011;60446;50.752;4.352;2023-09-18T11:33:37;6.80;;;2.13;;
72439;SDS011;60446;50.752;4.352;2023-09-18T11:36:07;5.27;;;2.00;;
72439;SDS011;60446;50.752;4.352;2023-09-18T11:38:56;6.25;;;2.33;;
72439;SDS011;60446;50.752;4.352;2023-09-18T11:41:33;8.07;;;2.45;;
72439;SDS011;60446;50.752;4.352;2023-09-18T11:46:46;6.43;;;2.22;;
72439;SDS011;60446;50.752;4.352;2023-09-18T11:49:22;9.07;;;2.30;;
72439;SDS011;60446;50.752;4.352;2023-09-18T11:51:53;6.47;;;2.20;;
72439;SDS011;60446;50.752;4.352;2023-09-18T11:54:25;6.68;;;2.17;;
72439;SDS011;60446;50.752;4.352;2023-09-18T11:56:54;7.05;;;2.50;;
72439;SDS011;60446;50.752;4.352;2023-09-18T11:59:43;7.15;;;2.35;;
72439;SDS011;60446;50.752;4.352;2023-09-18T12:02:11;5.47;;;2.60;;
72439;SDS011;60446;50.752;4.352;2023-09-18T12:05:20;7.93;;;2.55;;
72439;SDS011;60446;50.752;4.352;2023-09-18T12:07:52;7.88;;;1.95;;
72439;SDS011;60446;50.752;4.352;2023-09-18T12:10:20;6.97;;;2.45;;
72439;SDS011;60446;50.752;4.352;2023-09-18T12:12:49;5.88;;;2.50;;
72439;SDS011;60446;50.752;4.352;2023-09-18T12:15:19;8.53;;;2.67;;
72439;SDS011;60446;50.752;4.352;2023-09-18T12:17:53;5.40;;;2.30;;
72439;SDS011;60446;50.752;4.352;2023-09-18T12:20:26;5.60;;;1.90;;
72439;SDS011;60446;50.752;4.352;2023-09-18T12:23:07;5.40;;;1.92;;
72439;SDS011;60446;50.752;4.352;2023-09-18T12:25:39;5.40;;;2.20;;
72439;SDS011;60446;50.752;4.352;2023-09-18T12:28:11;5.60;;;1.83;;
72439;SDS011;60446;50.752;4.352;2023-09-18T12:30:59;6.38;;;1.92;;
72439;SDS011;60446;50.752;4.352;2023-09-18T12:33:36;8.05;;;4.15;;
72439;SDS011;60446;50.752;4.352;2023-09-18T12:36:06;6.93;;;1.85;;
72439;SDS011;60446;50.752;4.352;2023-09-18T12:38:34;6.23;;;1.77;;
72439;SDS011;60446;50.752;4.352;2023-09-18T12:41:04;4.70;;;1.50;;
72439;SDS011;60446;50.752;4.352;2023-09-18T12:43:36;6.68;;;2.10;;
72439;SDS011;60446;50.752;4.352;2023-09-18T12:46:18;4.10;;;1.45;;
72439;SDS011;60446;50.752;4.352;2023-09-18T12:53:05;4.93;;;1.70;;
72439;SDS011;60446;50.752;4.352;2023-09-18T12:55:46;4.15;;;1.58;;
72439;SDS011;60446;50.752;4.352;2023-09-18T12:58:31;8.88;;;2.33;;
72439;SDS011;60446;50.752;4.352;2023-09-18T13:01:08;5.88;;;1.98;;
72439;SDS011;60446;50.752;4.352;2023-09-18T13:03:46;5.68;;;1.80;;
72439;SDS011;60446;50.752;4.352;2023-09-18T13:07:02;6.63;;;2.17;;
72439;SDS011;60446;50.752;4.352;2023-09-18T13:13:27;5.20;;;2.10;;
72439;SDS011;60446;50.752;4.352;2023-09-18T13:16:27;4.97;;;1.70;;
72439;SDS011;60446;50.752;4.352;2023-09-18T13:19:52;4.80;;;1.70;;
72439;SDS011;60446;50.752;4.352;2023-09-18T13:23:01;4.37;;;1.60;;
72439;SDS011;60446;50.752;4.352;2023-09-18T13:26:14;6.45;;;2.17;;
72439;SDS011;60446;50.752;4.352;2023-09-18T13:29:09;8.43;;;2.03;;
72439;SDS011;60446;50.752;4.352;2023-09-18T13:32:17;8.55;;;1.88;;
72439;SDS011;60446;50.752;4.352;2023-09-18T13:35:02;4.95;;;1.70;;
72439;SDS011;60446;50.752;4.352;2023-09-18T13:38:15;5.43;;;2.00;;
72439;SDS011;60446;50.752;4.352;2023-09-18T13:41:07;4.68;;;1.55;;
72439;SDS011;60446;50.752;4.352;2023-09-18T13:44:20;4.68;;;1.80;;
72439;SDS011;60446;50.752;4.352;2023-09-18T13:47:50;5.45;;;1.55;;
72439;SDS011;60446;50.752;4.352;2023-09-18T13:51:06;5.45;;;1.88;;
72439;SDS011;60446;50.752;4.352;2023-09-18T13:54:06;5.40;;;1.70;;
72439;SDS011;60446;50.752;4.352;2023-09-18T13:57:11;4.28;;;1.42;;
72439;SDS011;60446;50.752;4.352;2023-09-18T13:59:59;5.97;;;1.67;;
72439;SDS011;60446;50.752;4.352;2023-09-18T14:02:43;6.70;;;1.70;;
72439;SDS011;60446;50.752;4.352;2023-09-18T14:05:25;5.40;;;1.58;;
72439;SDS011;60446;50.752;4.352;2023-09-18T14:08:03;5.43;;;1.90;;
72439;SDS011;60446;50.752;4.352;2023-09-18T14:10:52;5.47;;;2.08;;
72439;SDS011;60446;50.752;4.352;2023-09-18T14:13:20;6.10;;;1.80;;
72439;SDS011;60446;50.752;4.352;2023-09-18T14:16:06;6.13;;;1.70;;
72439;SDS011;60446;50.752;4.352;2023-09-18T14:18:41;5.25;;;1.95;;
72439;SDS011;60446;50.752;4.352;2023-09-18T14:21:22;7.13;;;1.80;;
72439;SDS011;60446;50.752;4.352;2023-09-18T14:23:59;5.45;;;1.77;;
72439;SDS011;60446;50.752;4.352;2023-09-18T14:26:28;7.90;;;2.20;;
72439;SDS011;60446;50.752;4.352;2023-09-18T14:29:11;5.55;;;2.03;;
72439;SDS011;60446;50.752;4.352;2023-09-18T14:31:45;8.50;;;2.38;;
72439;SDS011;60446;50.752;4.352;2023-09-18T14:34:15;5.73;;;1.80;;
72439;SDS011;60446;50.752;4.352;2023-09-18T14:36:56;5.05;;;1.88;;
72439;SDS011;60446;50.752;4.352;2023-09-18T14:39:28;5.55;;;1.85;;
72439;SDS011;60446;50.752;4.352;2023-09-18T14:42:00;6.68;;;2.08;;
72439;SDS011;60446;50.752;4.352;2023-09-18T14:44:44;6.32;;;1.90;;
72439;SDS011;60446;50.752;4.352;2023-09-18T14:47:12;5.27;;;1.93;;
72439;SDS011;60446;50.752;4.352;2023-09-18T14:49:51;6.35;;;1.77;;
72439;SDS011;60446;50.752;4.352;2023-09-18T14:52:18;5.95;;;1.73;;
72439;SDS011;60446;50.752;4.352;2023-09-18T14:54:53;4.82;;;1.83;;
72439;SDS011;60446;50.752;4.352;2023-09-18T14:57:24;5.18;;;1.90;;
72439;SDS011;60446;50.752;4.352;2023-09-18T14:59:55;4.87;;;1.57;;
72439;SDS011;60446;50.752;4.352;2023-09-18T15:02:25;4.65;;;1.50;;
72439;SDS011;60446;50.752;4.352;2023-09-18T15:04:56;4.95;;;1.65;;
72439;SDS011;60446;50.752;4.352;2023-09-18T15:07:25;6.47;;;1.70;;
72439;SDS011;60446;50.752;4.352;2023-09-18T15:10:00;4.57;;;1.52;;
72439;SDS011;60446;50.752;4.352;2023-09-18T15:12:27;6.10;;;2.00;;
72439;SDS011;60446;50.752;4.352;2023-09-18T15:14:58;5.75;;;1.65;;
72439;SDS011;60446;50.752;4.352;2023-09-18T15:17:31;5.68;;;1.70;;
72439;SDS011;60446;50.752;4.352;2023-09-18T15:20:01;5.22;;;1.45;;
72439;SDS011;60446;50.752;4.352;2023-09-18T15:22:35;5.03;;;1.50;;
72439;SDS011;60446;50.752;4.352;2023-09-18T15:25:08;5.20;;;1.40;;
72439;SDS011;60446;50.752;4.352;2023-09-18T15:27:51;6.45;;;1.88;;
72439;SDS011;60446;50.752;4.352;2023-09-18T15:30:35;4.85;;;1.80;;
72439;SDS011;60446;50.752;4.352;2023-09-18T15:33:02;7.03;;;1.80;;
72439;SDS011;60446;50.752;4.352;2023-09-18T15:35:32;6.25;;;2.08;;
72439;SDS011;60446;50.752;4.352;2023-09-18T15:38:00;6.47;;;1.87;;
72439;SDS011;60446;50.752;4.352;2023-09-18T15:40:30;5.13;;;1.90;;
72439;SDS011;60446;50.752;4.352;2023-09-18T15:42:57;4.75;;;1.50;;
72439;SDS011;60446;50.752;4.352;2023-09-18T15:45:31;6.97;;;1.75;;